sensor_id;sensor_type;location;lat;lon;timestamp;temperature;humidity
51815;DHT22;37874;53.158;6.766;2023-09-08T00:01:15;28.00;67.20
51815;DHT22;37874;53.158;6.766;2023-09-08T00:03:41;28.00;67.20
51815;DHT22;37874;53.158;6.766;2023-09-08T00:06:06;28.00;67.10
51815;DHT22;37874;53.158;6.766;2023-09-08T00:08:32;27.90;67.00
51815;DHT22;37874;53.158;6.766;2023-09-08T00:10:58;27.90;67.00
51815;DHT22;37874;53.158;6.766;2023-09-08T00:13:23;27.90;66.90
51815;DHT22;37874;53.158;6.766;2023-09-08T00:15:49;28.00;66.60
51815;DHT22;37874;53.158;6.766;2023-09-08T00:18:14;27.90;65.80
51815;DHT22;37874;53.158;6.766;2023-09-08T00:20:41;27.90;65.30
51815;DHT22;37874;53.158;6.766;2023-09-08T00:23:07;27.90;65.30
51815;DHT22;37874;53.158;6.766;2023-09-08T00:25:33;27.90;65.50
51815;DHT22;37874;53.158;6.766;2023-09-08T00:28:00;27.90;65.80
51815;DHT22;37874;53.158;6.766;2023-09-08T00:30:25;27.90;65.90
51815;DHT22;37874;53.158;6.766;2023-09-08T00:32:51;27.80;65.90
51815;DHT22;37874;53.158;6.766;2023-09-08T00:35:19;27.80;66.00
51815;DHT22;37874;53.158;6.766;2023-09-08T00:37:45;27.80;66.10
51815;DHT22;37874;53.158;6.766;2023-09-08T00:40:10;27.80;66.00
51815;DHT22;37874;53.158;6.766;2023-09-08T00:42:36;27.80;66.00
51815;DHT22;37874;53.158;6.766;2023-09-08T00:45:02;27.80;66.00
51815;DHT22;37874;53.158;6.766;2023-09-08T00:47:28;27.80;65.90
51815;DHT22;37874;53.158;6.766;2023-09-08T00:49:54;27.80;65.90
51815;DHT22;37874;53.158;6.766;2023-09-08T00:52:22;27.80;65.90
51815;DHT22;37874;53.158;6.766;2023-09-08T00:54:47;27.80;65.80
51815;DHT22;37874;53.158;6.766;2023-09-08T00:57:13;27.80;65.70
51815;DHT22;37874;53.158;6.766;2023-09-08T00:59:39;27.80;65.60
51815;DHT22;37874;53.158;6.766;2023-09-08T01:02:05;27.80;65.50
51815;DHT22;37874;53.158;6.766;2023-09-08T01:04:30;27.80;65.40
51815;DHT22;37874;53.158;6.766;2023-09-08T01:06:58;27.80;65.30
51815;DHT22;37874;53.158;6.766;2023-09-08T01:09:27;27.90;65.30
51815;DHT22;37874;53.158;6.766;2023-09-08T01:11:53;27.80;65.10
51815;DHT22;37874;53.158;6.766;2023-09-08T01:14:20;27.80;65.00
51815;DHT22;37874;53.158;6.766;2023-09-08T01:16:46;27.90;64.90
51815;DHT22;37874;53.158;6.766;2023-09-08T01:19:13;27.90;64.80
51815;DHT22;37874;53.158;6.766;2023-09-08T01:21:52;27.80;64.60
51815;DHT22;37874;53.158;6.766;2023-09-08T01:26:48;27.90;64.50
51815;DHT22;37874;53.158;6.766;2023-09-08T01:29:16;27.90;64.30
51815;DHT22;37874;53.158;6.766;2023-09-08T01:31:42;27.90;64.20
51815;DHT22;37874;53.158;6.766;2023-09-08T01:34:08;27.80;64.00
51815;DHT22;37874;53.158;6.766;2023-09-08T01:36:34;27.90;63.90
51815;DHT22;37874;53.158;6.766;2023-09-08T01:39:01;28.00;63.90
51815;DHT22;37874;53.158;6.766;2023-09-08T01:41:27;28.00;63.80
51815;DHT22;37874;53.158;6.766;2023-09-08T01:43:52;27.90;63.60
51815;DHT22;37874;53.158;6.766;2023-09-08T01:46:18;27.90;63.40
51815;DHT22;37874;53.158;6.766;2023-09-08T01:48:43;27.90;63.30
51815;DHT22;37874;53.158;6.766;2023-09-08T01:51:10;28.00;63.30
51815;DHT22;37874;53.158;6.766;2023-09-08T01:53:35;28.00;63.10
51815;DHT22;37874;53.158;6.766;2023-09-08T01:56:01;28.00;63.00
51815;DHT22;37874;53.158;6.766;2023-09-08T01:58:26;28.00;63.40
51815;DHT22;37874;53.158;6.766;2023-09-08T02:00:53;28.00;62.80
51815;DHT22;37874;53.158;6.766;2023-09-08T02:03:19;28.00;62.70
51815;DHT22;37874;53.158;6.766;2023-09-08T02:05:45;28.00;62.50
51815;DHT22;37874;53.158;6.766;2023-09-08T02:08:11;28.00;62.40
51815;DHT22;37874;53.158;6.766;2023-09-08T02:10:39;27.90;62.20
51815;DHT22;37874;53.158;6.766;2023-09-08T02:13:07;28.00;62.20
51815;DHT22;37874;53.158;6.766;2023-09-08T02:15:35;28.10;62.10
51815;DHT22;37874;53.158;6.766;2023-09-08T02:18:01;28.00;61.90
51815;DHT22;37874;53.158;6.766;2023-09-08T02:20:27;28.10;61.90
51815;DHT22;37874;53.158;6.766;2023-09-08T02:22:54;28.00;61.80
51815;DHT22;37874;53.158;6.766;2023-09-08T02:25:20;28.00;61.60
51815;DHT22;37874;53.158;6.766;2023-09-08T02:27:46;28.10;61.60
51815;DHT22;37874;53.158;6.766;2023-09-08T02:30:12;28.00;61.40
51815;DHT22;37874;53.158;6.766;2023-09-08T02:32:37;28.10;61.30
51815;DHT22;37874;53.158;6.766;2023-09-08T02:35:03;28.10;61.30
51815;DHT22;37874;53.158;6.766;2023-09-08T02:37:29;28.00;61.10
51815;DHT22;37874;53.158;6.766;2023-09-08T02:39:54;28.00;61.00
51815;DHT22;37874;53.158;6.766;2023-09-08T02:42:20;28.10;61.00
51815;DHT22;37874;53.158;6.766;2023-09-08T02:44:46;28.10;60.90
51815;DHT22;37874;53.158;6.766;2023-09-08T02:47:11;28.10;60.80
51815;DHT22;37874;53.158;6.766;2023-09-08T02:49:37;28.10;60.70
51815;DHT22;37874;53.158;6.766;2023-09-08T02:52:03;28.10;60.60
51815;DHT22;37874;53.158;6.766;2023-09-08T02:54:28;28.10;60.50
51815;DHT22;37874;53.158;6.766;2023-09-08T02:56:54;28.10;60.40
51815;DHT22;37874;53.158;6.766;2023-09-08T02:59:19;28.10;60.30
51815;DHT22;37874;53.158;6.766;2023-09-08T03:01:45;28.10;60.20
51815;DHT22;37874;53.158;6.766;2023-09-08T03:04:10;28.10;60.10
51815;DHT22;37874;53.158;6.766;2023-09-08T03:06:36;28.10;60.00
51815;DHT22;37874;53.158;6.766;2023-09-08T03:09:02;28.10;60.00
51815;DHT22;37874;53.158;6.766;2023-09-08T03:11:28;28.10;59.90
51815;DHT22;37874;53.158;6.766;2023-09-08T03:13:54;28.10;59.80
51815;DHT22;37874;53.158;6.766;2023-09-08T03:16:19;28.10;59.70
51815;DHT22;37874;53.158;6.766;2023-09-08T03:18:45;28.10;59.70
51815;DHT22;37874;53.158;6.766;2023-09-08T03:21:13;28.10;59.60
51815;DHT22;37874;53.158;6.766;2023-09-08T03:23:40;28.10;59.50
51815;DHT22;37874;53.158;6.766;2023-09-08T03:26:07;28.10;59.50
51815;DHT22;37874;53.158;6.766;2023-09-08T03:28:33;28.00;59.40
51815;DHT22;37874;53.158;6.766;2023-09-08T03:31:01;28.10;59.50
51815;DHT22;37874;53.158;6.766;2023-09-08T03:33:28;28.00;59.30
51815;DHT22;37874;53.158;6.766;2023-09-08T03:35:53;28.10;59.30
51815;DHT22;37874;53.158;6.766;2023-09-08T03:38:19;28.10;59.30
51815;DHT22;37874;53.158;6.766;2023-09-08T03:40:44;28.10;59.20
51815;DHT22;37874;53.158;6.766;2023-09-08T03:43:10;28.10;59.70
51815;DHT22;37874;53.158;6.766;2023-09-08T03:45:36;28.00;59.00
51815;DHT22;37874;53.158;6.766;2023-09-08T03:48:01;28.10;59.00
51815;DHT22;37874;53.158;6.766;2023-09-08T03:50:27;28.10;59.00
51815;DHT22;37874;53.158;6.766;2023-09-08T03:52:52;28.10;58.90
51815;DHT22;37874;53.158;6.766;2023-09-08T03:55:19;28.00;58.80
51815;DHT22;37874;53.158;6.766;2023-09-08T03:57:47;28.00;58.80
51815;DHT22;37874;53.158;6.766;2023-09-08T04:00:13;28.00;58.80
51815;DHT22;37874;53.158;6.766;2023-09-08T04:02:45;28.00;58.70
51815;DHT22;37874;53.158;6.766;2023-09-08T04:05:10;28.00;58.70
51815;DHT22;37874;53.158;6.766;2023-09-08T04:07:36;28.00;58.70
51815;DHT22;37874;53.158;6.766;2023-09-08T04:10:02;28.00;58.60
51815;DHT22;37874;53.158;6.766;2023-09-08T04:12:28;28.00;58.60
51815;DHT22;37874;53.158;6.766;2023-09-08T04:14:54;28.00;58.50
51815;DHT22;37874;53.158;6.766;2023-09-08T04:17:20;28.00;58.50
51815;DHT22;37874;53.158;6.766;2023-09-08T04:19:45;28.00;58.50
51815;DHT22;37874;53.158;6.766;2023-09-08T04:22:11;28.00;58.40
51815;DHT22;37874;53.158;6.766;2023-09-08T04:24:39;28.00;58.40
51815;DHT22;37874;53.158;6.766;2023-09-08T04:27:05;28.00;58.40
51815;DHT22;37874;53.158;6.766;2023-09-08T04:29:30;28.00;58.40
51815;DHT22;37874;53.158;6.766;2023-09-08T04:31:56;28.00;58.40
51815;DHT22;37874;53.158;6.766;2023-09-08T04:34:21;28.00;58.30
51815;DHT22;37874;53.158;6.766;2023-09-08T04:36:47;27.80;58.20
51815;DHT22;37874;53.158;6.766;2023-09-08T04:39:12;28.00;58.90
51815;DHT22;37874;53.158;6.766;2023-09-08T04:41:40;28.00;58.30
51815;DHT22;37874;53.158;6.766;2023-09-08T04:44:06;27.90;58.20
51815;DHT22;37874;53.158;6.766;2023-09-08T04:46:31;28.00;58.30
51815;DHT22;37874;53.158;6.766;2023-09-08T04:48:57;27.90;58.20
51815;DHT22;37874;53.158;6.766;2023-09-08T04:51:23;27.90;58.20
51815;DHT22;37874;53.158;6.766;2023-09-08T04:53:48;27.90;58.10
51815;DHT22;37874;53.158;6.766;2023-09-08T04:56:15;27.90;58.10
51815;DHT22;37874;53.158;6.766;2023-09-08T04:58:41;27.90;58.10
51815;DHT22;37874;53.158;6.766;2023-09-08T05:01:07;27.90;58.10
51815;DHT22;37874;53.158;6.766;2023-09-08T05:03:33;27.90;58.00
51815;DHT22;37874;53.158;6.766;2023-09-08T05:05:58;27.90;57.90
51815;DHT22;37874;53.158;6.766;2023-09-08T05:08:24;27.90;57.90
51815;DHT22;37874;53.158;6.766;2023-09-08T05:10:50;27.90;57.90
51815;DHT22;37874;53.158;6.766;2023-09-08T05:13:16;27.90;57.90
51815;DHT22;37874;53.158;6.766;2023-09-08T05:15:42;27.90;57.80
51815;DHT22;37874;53.158;6.766;2023-09-08T05:18:09;27.90;57.80
51815;DHT22;37874;53.158;6.766;2023-09-08T05:20:35;27.90;57.70
51815;DHT22;37874;53.158;6.766;2023-09-08T05:23:00;27.90;57.60
51815;DHT22;37874;53.158;6.766;2023-09-08T05:25:26;27.90;57.60
51815;DHT22;37874;53.158;6.766;2023-09-08T05:27:51;27.90;57.60
51815;DHT22;37874;53.158;6.766;2023-09-08T05:30:17;27.90;57.50
51815;DHT22;37874;53.158;6.766;2023-09-08T05:32:43;27.90;57.50
51815;DHT22;37874;53.158;6.766;2023-09-08T05:35:09;27.90;57.50
51815;DHT22;37874;53.158;6.766;2023-09-08T05:37:35;27.90;57.40
51815;DHT22;37874;53.158;6.766;2023-09-08T05:40:00;27.90;57.40
51815;DHT22;37874;53.158;6.766;2023-09-08T05:42:26;27.80;57.10
51815;DHT22;37874;53.158;6.766;2023-09-08T05:44:51;27.90;57.20
51815;DHT22;37874;53.158;6.766;2023-09-08T05:47:20;27.80;57.00
51815;DHT22;37874;53.158;6.766;2023-09-08T05:49:45;27.90;57.00
51815;DHT22;37874;53.158;6.766;2023-09-08T05:52:11;27.90;57.00
51815;DHT22;37874;53.158;6.766;2023-09-08T05:54:36;27.90;56.90
51815;DHT22;37874;53.158;6.766;2023-09-08T05:57:05;27.90;56.90
51815;DHT22;37874;53.158;6.766;2023-09-08T05:59:31;27.90;56.80
51815;DHT22;37874;53.158;6.766;2023-09-08T06:01:56;27.90;56.80
51815;DHT22;37874;53.158;6.766;2023-09-08T06:04:22;27.90;56.70
51815;DHT22;37874;53.158;6.766;2023-09-08T06:06:48;27.90;56.70
51815;DHT22;37874;53.158;6.766;2023-09-08T06:09:13;28.10;56.80
51815;DHT22;37874;53.158;6.766;2023-09-08T06:11:42;27.80;56.50
51815;DHT22;37874;53.158;6.766;2023-09-08T06:14:08;27.90;56.60
51815;DHT22;37874;53.158;6.766;2023-09-08T06:16:34;27.90;56.60
51815;DHT22;37874;53.158;6.766;2023-09-08T06:19:01;27.90;56.50
51815;DHT22;37874;53.158;6.766;2023-09-08T06:21:28;27.90;56.50
51815;DHT22;37874;53.158;6.766;2023-09-08T06:23:54;28.00;56.50
51815;DHT22;37874;53.158;6.766;2023-09-08T06:26:19;28.10;56.40
51815;DHT22;37874;53.158;6.766;2023-09-08T06:28:45;28.00;56.30
51815;DHT22;37874;53.158;6.766;2023-09-08T06:31:11;28.00;56.80
51815;DHT22;37874;53.158;6.766;2023-09-08T06:33:36;28.00;56.10
51815;DHT22;37874;53.158;6.766;2023-09-08T06:36:02;28.00;56.00
51815;DHT22;37874;53.158;6.766;2023-09-08T06:38:27;28.00;55.80
51815;DHT22;37874;53.158;6.766;2023-09-08T06:40:56;28.10;55.50
51815;DHT22;37874;53.158;6.766;2023-09-08T06:43:22;28.10;52.90
51815;DHT22;37874;53.158;6.766;2023-09-08T06:45:48;27.70;50.50
51815;DHT22;37874;53.158;6.766;2023-09-08T06:48:15;27.30;50.60
51815;DHT22;37874;53.158;6.766;2023-09-08T06:50:40;27.00;51.30
51815;DHT22;37874;53.158;6.766;2023-09-08T06:53:06;26.70;51.80
51815;DHT22;37874;53.158;6.766;2023-09-08T06:55:31;26.40;52.30
51815;DHT22;37874;53.158;6.766;2023-09-08T06:57:57;26.20;52.70
51815;DHT22;37874;53.158;6.766;2023-09-08T07:00:23;26.00;53.30
51815;DHT22;37874;53.158;6.766;2023-09-08T07:02:49;25.90;53.80
51815;DHT22;37874;53.158;6.766;2023-09-08T07:05:15;25.70;54.20
51815;DHT22;37874;53.158;6.766;2023-09-08T07:07:41;25.60;54.70
51815;DHT22;37874;53.158;6.766;2023-09-08T07:10:07;25.60;55.10
51815;DHT22;37874;53.158;6.766;2023-09-08T07:12:34;25.50;55.50
51815;DHT22;37874;53.158;6.766;2023-09-08T07:14:59;25.70;56.00
51815;DHT22;37874;53.158;6.766;2023-09-08T07:17:28;25.40;56.20
51815;DHT22;37874;53.158;6.766;2023-09-08T07:19:53;25.40;56.60
51815;DHT22;37874;53.158;6.766;2023-09-08T07:22:19;25.40;57.00
51815;DHT22;37874;53.158;6.766;2023-09-08T07:24:44;25.40;57.20
51815;DHT22;37874;53.158;6.766;2023-09-08T07:27:10;25.30;57.20
51815;DHT22;37874;53.158;6.766;2023-09-08T07:29:39;25.30;57.20
51815;DHT22;37874;53.158;6.766;2023-09-08T07:32:05;25.30;57.20
51815;DHT22;37874;53.158;6.766;2023-09-08T07:34:32;25.20;57.10
51815;DHT22;37874;53.158;6.766;2023-09-08T07:36:57;25.20;57.10
51815;DHT22;37874;53.158;6.766;2023-09-08T07:39:23;25.20;57.20
51815;DHT22;37874;53.158;6.766;2023-09-08T07:41:48;25.10;57.40
51815;DHT22;37874;53.158;6.766;2023-09-08T07:44:14;25.10;57.80
51815;DHT22;37874;53.158;6.766;2023-09-08T07:46:40;25.00;58.00
51815;DHT22;37874;53.158;6.766;2023-09-08T07:49:05;25.00;58.30
51815;DHT22;37874;53.158;6.766;2023-09-08T07:51:31;24.90;58.20
51815;DHT22;37874;53.158;6.766;2023-09-08T07:53:56;24.90;58.40
51815;DHT22;37874;53.158;6.766;2023-09-08T07:56:22;24.80;58.50
51815;DHT22;37874;53.158;6.766;2023-09-08T07:58:48;24.90;58.50
51815;DHT22;37874;53.158;6.766;2023-09-08T08:01:14;24.80;58.60
51815;DHT22;37874;53.158;6.766;2023-09-08T08:03:40;25.00;58.70
51815;DHT22;37874;53.158;6.766;2023-09-08T08:06:06;25.00;58.70
51815;DHT22;37874;53.158;6.766;2023-09-08T08:08:32;25.00;58.80
51815;DHT22;37874;53.158;6.766;2023-09-08T08:10:59;25.10;58.50
51815;DHT22;37874;53.158;6.766;2023-09-08T08:13:24;25.20;58.40
51815;DHT22;37874;53.158;6.766;2023-09-08T08:15:50;25.40;58.10
51815;DHT22;37874;53.158;6.766;2023-09-08T08:18:20;25.60;57.90
51815;DHT22;37874;53.158;6.766;2023-09-08T08:20:51;25.70;57.50
51815;DHT22;37874;53.158;6.766;2023-09-08T08:23:20;25.90;57.30
51815;DHT22;37874;53.158;6.766;2023-09-08T08:25:45;26.10;57.10
51815;DHT22;37874;53.158;6.766;2023-09-08T08:28:13;26.20;56.80
51815;DHT22;37874;53.158;6.766;2023-09-08T08:30:42;26.30;56.60
51815;DHT22;37874;53.158;6.766;2023-09-08T08:33:08;26.40;56.40
51815;DHT22;37874;53.158;6.766;2023-09-08T08:35:35;26.50;56.20
51815;DHT22;37874;53.158;6.766;2023-09-08T08:38:01;26.50;56.10
51815;DHT22;37874;53.158;6.766;2023-09-08T08:40:38;26.60;56.00
51815;DHT22;37874;53.158;6.766;2023-09-08T08:43:06;26.70;55.90
51815;DHT22;37874;53.158;6.766;2023-09-08T08:45:32;26.70;55.70
51815;DHT22;37874;53.158;6.766;2023-09-08T08:48:00;26.80;55.80
51815;DHT22;37874;53.158;6.766;2023-09-08T08:50:26;26.90;55.70
51815;DHT22;37874;53.158;6.766;2023-09-08T08:52:56;27.00;55.60
51815;DHT22;37874;53.158;6.766;2023-09-08T08:55:23;27.00;55.60
51815;DHT22;37874;53.158;6.766;2023-09-08T08:58:01;27.00;55.50
51815;DHT22;37874;53.158;6.766;2023-09-08T09:00:28;27.10;55.50
51815;DHT22;37874;53.158;6.766;2023-09-08T09:02:55;27.10;55.40
51815;DHT22;37874;53.158;6.766;2023-09-08T09:05:23;27.10;55.30
51815;DHT22;37874;53.158;6.766;2023-09-08T09:07:58;27.20;55.90
51815;DHT22;37874;53.158;6.766;2023-09-08T09:10:26;27.20;55.20
51815;DHT22;37874;53.158;6.766;2023-09-08T09:12:51;27.30;55.20
51815;DHT22;37874;53.158;6.766;2023-09-08T09:15:28;27.30;55.00
51815;DHT22;37874;53.158;6.766;2023-09-08T09:18:07;27.40;54.90
51815;DHT22;37874;53.158;6.766;2023-09-08T09:20:34;27.40;54.80
51815;DHT22;37874;53.158;6.766;2023-09-08T09:23:03;27.50;54.80
51815;DHT22;37874;53.158;6.766;2023-09-08T09:25:30;27.80;55.10
51815;DHT22;37874;53.158;6.766;2023-09-08T09:28:00;27.50;54.90
51815;DHT22;37874;53.158;6.766;2023-09-08T09:30:52;27.60;54.90
51815;DHT22;37874;53.158;6.766;2023-09-08T09:33:22;27.60;55.00
51815;DHT22;37874;53.158;6.766;2023-09-08T09:38:19;27.70;54.90
51815;DHT22;37874;53.158;6.766;2023-09-08T09:40:46;27.70;54.90
51815;DHT22;37874;53.158;6.766;2023-09-08T09:43:24;27.70;54.70
51815;DHT22;37874;53.158;6.766;2023-09-08T09:45:53;27.70;54.60
51815;DHT22;37874;53.158;6.766;2023-09-08T09:48:20;27.80;54.60
51815;DHT22;37874;53.158;6.766;2023-09-08T09:50:46;27.80;54.60
51815;DHT22;37874;53.158;6.766;2023-09-08T09:53:13;27.80;55.10
51815;DHT22;37874;53.158;6.766;2023-09-08T09:55:44;27.80;54.50
51815;DHT22;37874;53.158;6.766;2023-09-08T09:58:10;27.90;54.50
51815;DHT22;37874;53.158;6.766;2023-09-08T10:00:37;27.90;54.50
51815;DHT22;37874;53.158;6.766;2023-09-08T10:03:06;27.90;54.40
51815;DHT22;37874;53.158;6.766;2023-09-08T10:05:32;28.20;54.60
51815;DHT22;37874;53.158;6.766;2023-09-08T10:07:59;27.90;54.90
51815;DHT22;37874;53.158;6.766;2023-09-08T10:10:26;28.10;54.70
51815;DHT22;37874;53.158;6.766;2023-09-08T10:12:53;28.10;54.30
51815;DHT22;37874;53.158;6.766;2023-09-08T10:15:23;28.10;54.30
51815;DHT22;37874;53.158;6.766;2023-09-08T10:17:56;28.10;54.30
51815;DHT22;37874;53.158;6.766;2023-09-08T10:20:25;28.10;54.20
51815;DHT22;37874;53.158;6.766;2023-09-08T10:23:15;28.20;54.40
51815;DHT22;37874;53.158;6.766;2023-09-08T10:25:46;28.20;54.30
51815;DHT22;37874;53.158;6.766;2023-09-08T10:28:21;28.10;54.20
51815;DHT22;37874;53.158;6.766;2023-09-08T10:30:48;28.20;54.30
51815;DHT22;37874;53.158;6.766;2023-09-08T10:33:14;28.20;54.20
51815;DHT22;37874;53.158;6.766;2023-09-08T10:35:42;28.20;54.10
51815;DHT22;37874;53.158;6.766;2023-09-08T10:38:25;28.20;54.00
51815;DHT22;37874;53.158;6.766;2023-09-08T10:40:51;28.20;53.90
51815;DHT22;37874;53.158;6.766;2023-09-08T10:43:18;28.20;53.80
51815;DHT22;37874;53.158;6.766;2023-09-08T10:45:45;28.20;53.70
51815;DHT22;37874;53.158;6.766;2023-09-08T10:48:11;28.20;53.50
51815;DHT22;37874;53.158;6.766;2023-09-08T10:50:42;28.30;53.50
51815;DHT22;37874;53.158;6.766;2023-09-08T10:53:16;28.30;53.50
51815;DHT22;37874;53.158;6.766;2023-09-08T10:55:46;28.30;53.40
51815;DHT22;37874;53.158;6.766;2023-09-08T10:58:33;28.30;53.40
51815;DHT22;37874;53.158;6.766;2023-09-08T11:01:00;28.30;53.40
51815;DHT22;37874;53.158;6.766;2023-09-08T11:06:10;28.30;53.30
51815;DHT22;37874;53.158;6.766;2023-09-08T11:08:40;28.40;53.30
51815;DHT22;37874;53.158;6.766;2023-09-08T11:11:06;28.40;53.30
51815;DHT22;37874;53.158;6.766;2023-09-08T11:13:32;28.30;52.90
51815;DHT22;37874;53.158;6.766;2023-09-08T11:15:58;28.40;52.90
51815;DHT22;37874;53.158;6.766;2023-09-08T11:18:30;28.40;52.80
51815;DHT22;37874;53.158;6.766;2023-09-08T11:20:57;28.40;52.70
51815;DHT22;37874;53.158;6.766;2023-09-08T11:23:23;28.50;52.70
51815;DHT22;37874;53.158;6.766;2023-09-08T11:25:50;28.50;52.70
51815;DHT22;37874;53.158;6.766;2023-09-08T11:28:24;28.50;52.50
51815;DHT22;37874;53.158;6.766;2023-09-08T11:30:50;28.50;52.30
51815;DHT22;37874;53.158;6.766;2023-09-08T11:33:20;28.60;52.30
51815;DHT22;37874;53.158;6.766;2023-09-08T11:35:53;28.70;52.30
51815;DHT22;37874;53.158;6.766;2023-09-08T11:38:24;28.70;52.10
51815;DHT22;37874;53.158;6.766;2023-09-08T11:40:55;28.70;52.00
51815;DHT22;37874;53.158;6.766;2023-09-08T11:43:22;28.90;51.80
51815;DHT22;37874;53.158;6.766;2023-09-08T11:45:48;29.00;51.30
51815;DHT22;37874;53.158;6.766;2023-09-08T11:48:14;29.20;50.80
51815;DHT22;37874;53.158;6.766;2023-09-08T11:50:43;29.50;50.30
51815;DHT22;37874;53.158;6.766;2023-09-08T11:53:09;29.60;49.70
51815;DHT22;37874;53.158;6.766;2023-09-08T11:55:35;29.90;49.20
51815;DHT22;37874;53.158;6.766;2023-09-08T11:58:02;30.00;48.60
51815;DHT22;37874;53.158;6.766;2023-09-08T12:00:28;30.10;48.10
51815;DHT22;37874;53.158;6.766;2023-09-08T12:02:55;30.20;47.70
51815;DHT22;37874;53.158;6.766;2023-09-08T12:05:22;30.40;47.30
51815;DHT22;37874;53.158;6.766;2023-09-08T12:07:53;30.50;47.00
51815;DHT22;37874;53.158;6.766;2023-09-08T12:10:20;30.50;46.70
51815;DHT22;37874;53.158;6.766;2023-09-08T12:12:52;30.60;46.40
51815;DHT22;37874;53.158;6.766;2023-09-08T12:15:32;30.70;46.00
51815;DHT22;37874;53.158;6.766;2023-09-08T12:17:59;30.80;45.50
51815;DHT22;37874;53.158;6.766;2023-09-08T12:20:25;30.90;45.20
51815;DHT22;37874;53.158;6.766;2023-09-08T12:22:52;31.00;45.00
51815;DHT22;37874;53.158;6.766;2023-09-08T12:25:18;31.10;44.80
51815;DHT22;37874;53.158;6.766;2023-09-08T12:27:45;31.10;44.50
51815;DHT22;37874;53.158;6.766;2023-09-08T12:30:22;31.20;44.30
51815;DHT22;37874;53.158;6.766;2023-09-08T12:32:57;31.20;44.10
51815;DHT22;37874;53.158;6.766;2023-09-08T12:35:24;31.30;43.70
51815;DHT22;37874;53.158;6.766;2023-09-08T12:37:57;31.30;43.50
51815;DHT22;37874;53.158;6.766;2023-09-08T12:40:28;31.40;43.50
51815;DHT22;37874;53.158;6.766;2023-09-08T12:42:55;31.40;43.30
51815;DHT22;37874;53.158;6.766;2023-09-08T12:45:22;31.50;43.10
51815;DHT22;37874;53.158;6.766;2023-09-08T12:47:50;31.50;43.00
51815;DHT22;37874;53.158;6.766;2023-09-08T12:50:16;31.60;43.00
51815;DHT22;37874;53.158;6.766;2023-09-08T12:52:42;31.60;42.90
51815;DHT22;37874;53.158;6.766;2023-09-08T12:55:09;31.60;42.80
51815;DHT22;37874;53.158;6.766;2023-09-08T12:57:36;31.70;42.80
51815;DHT22;37874;53.158;6.766;2023-09-08T13:00:02;31.70;42.70
51815;DHT22;37874;53.158;6.766;2023-09-08T13:02:28;31.80;42.70
51815;DHT22;37874;53.158;6.766;2023-09-08T13:04:54;31.90;42.70
51815;DHT22;37874;53.158;6.766;2023-09-08T13:07:20;31.90;42.60
51815;DHT22;37874;53.158;6.766;2023-09-08T13:09:46;32.00;42.50
51815;DHT22;37874;53.158;6.766;2023-09-08T13:12:12;32.00;42.50
51815;DHT22;37874;53.158;6.766;2023-09-08T13:14:39;32.00;42.50
51815;DHT22;37874;53.158;6.766;2023-09-08T13:17:05;32.10;42.50
51815;DHT22;37874;53.158;6.766;2023-09-08T13:19:32;32.10;42.50
51815;DHT22;37874;53.158;6.766;2023-09-08T13:21:58;32.10;42.60
51815;DHT22;37874;53.158;6.766;2023-09-08T13:24:26;32.20;42.70
51815;DHT22;37874;53.158;6.766;2023-09-08T13:26:55;32.20;42.80
51815;DHT22;37874;53.158;6.766;2023-09-08T13:29:20;32.30;42.80
51815;DHT22;37874;53.158;6.766;2023-09-08T13:31:46;32.30;42.90
51815;DHT22;37874;53.158;6.766;2023-09-08T13:34:11;32.30;42.80
51815;DHT22;37874;53.158;6.766;2023-09-08T13:36:37;32.40;43.00
51815;DHT22;37874;53.158;6.766;2023-09-08T13:39:03;32.50;43.00
51815;DHT22;37874;53.158;6.766;2023-09-08T13:41:51;32.50;43.00
51815;DHT22;37874;53.158;6.766;2023-09-08T13:44:18;32.50;43.10
51815;DHT22;37874;53.158;6.766;2023-09-08T13:46:48;32.60;43.10
51815;DHT22;37874;53.158;6.766;2023-09-08T13:49:14;32.60;42.80
51815;DHT22;37874;53.158;6.766;2023-09-08T13:51:40;32.70;42.50
51815;DHT22;37874;53.158;6.766;2023-09-08T13:54:07;32.60;42.20
51815;DHT22;37874;53.158;6.766;2023-09-08T13:56:33;32.70;41.90
51815;DHT22;37874;53.158;6.766;2023-09-08T13:58:59;32.80;41.80
51815;DHT22;37874;53.158;6.766;2023-09-08T14:01:25;32.80;41.60
51815;DHT22;37874;53.158;6.766;2023-09-08T14:03:53;32.80;41.30
51815;DHT22;37874;53.158;6.766;2023-09-08T14:06:19;32.90;41.70
51815;DHT22;37874;53.158;6.766;2023-09-08T14:08:44;32.90;41.10
51815;DHT22;37874;53.158;6.766;2023-09-08T14:11:11;32.90;41.00
51815;DHT22;37874;53.158;6.766;2023-09-08T14:13:37;32.90;41.00
51815;DHT22;37874;53.158;6.766;2023-09-08T14:16:03;32.90;40.80
51815;DHT22;37874;53.158;6.766;2023-09-08T14:18:29;32.90;40.70
51815;DHT22;37874;53.158;6.766;2023-09-08T14:20:55;32.90;40.60
51815;DHT22;37874;53.158;6.766;2023-09-08T14:23:21;32.90;40.60
51815;DHT22;37874;53.158;6.766;2023-09-08T14:25:48;32.90;40.40
51815;DHT22;37874;53.158;6.766;2023-09-08T14:28:13;33.00;40.70
51815;DHT22;37874;53.158;6.766;2023-09-08T14:30:39;33.00;40.50
51815;DHT22;37874;53.158;6.766;2023-09-08T14:33:06;33.00;40.40
51815;DHT22;37874;53.158;6.766;2023-09-08T14:35:32;33.00;40.40
51815;DHT22;37874;53.158;6.766;2023-09-08T14:37:58;32.90;40.40
51815;DHT22;37874;53.158;6.766;2023-09-08T14:40:24;33.00;40.40
51815;DHT22;37874;53.158;6.766;2023-09-08T14:42:50;33.00;40.40
51815;DHT22;37874;53.158;6.766;2023-09-08T14:45:16;33.00;40.30
51815;DHT22;37874;53.158;6.766;2023-09-08T14:47:41;33.10;40.40
51815;DHT22;37874;53.158;6.766;2023-09-08T14:50:07;33.00;40.20
51815;DHT22;37874;53.158;6.766;2023-09-08T14:52:33;33.10;40.00
51815;DHT22;37874;53.158;6.766;2023-09-08T14:54:59;33.10;39.80
51815;DHT22;37874;53.158;6.766;2023-09-08T14:57:25;33.10;39.90
51815;DHT22;37874;53.158;6.766;2023-09-08T14:59:51;33.20;39.80
51815;DHT22;37874;53.158;6.766;2023-09-08T15:02:25;33.10;39.70
51815;DHT22;37874;53.158;6.766;2023-09-08T15:04:50;33.20;39.70
51815;DHT22;37874;53.158;6.766;2023-09-08T15:07:16;33.20;40.20
51815;DHT22;37874;53.158;6.766;2023-09-08T15:09:42;33.20;39.40
51815;DHT22;37874;53.158;6.766;2023-09-08T15:12:07;33.30;39.30
51815;DHT22;37874;53.158;6.766;2023-09-08T15:14:33;33.30;39.30
51815;DHT22;37874;53.158;6.766;2023-09-08T15:16:59;33.30;39.30
51815;DHT22;37874;53.158;6.766;2023-09-08T15:19:27;33.30;39.10
51815;DHT22;37874;53.158;6.766;2023-09-08T15:21:53;33.40;39.10
51815;DHT22;37874;53.158;6.766;2023-09-08T15:24:18;33.40;39.10
51815;DHT22;37874;53.158;6.766;2023-09-08T15:26:44;33.40;39.00
51815;DHT22;37874;53.158;6.766;2023-09-08T15:29:11;33.40;38.80
51815;DHT22;37874;53.158;6.766;2023-09-08T15:31:38;33.40;38.70
51815;DHT22;37874;53.158;6.766;2023-09-08T15:34:06;33.40;38.60
51815;DHT22;37874;53.158;6.766;2023-09-08T15:36:33;33.40;38.70